Time;durP1;ratioP1;P1;durP2;ratioP2;P2;SDS_P1;SDS_P2;PMS_P1;PMS_P2;Temp;Humidity;BMP_temperature;BMP_pressure;BME280_temperature;BME280_humidity;BME280_pressure;Samples;Min_cycle;Max_cycle;Signal;HPM_P1;HPM_P2
2024/05/04 00:02:01;;;;;;;25.33;23.50;;;;;;;-145.37;100.00;61290.75;6433587;22;20309;-86
2024/05/04 00:04:28;;;;;;;21.75;20.08;;;;;;;-145.37;100.00;61290.75;6432356;22;19998;-87
2024/05/04 00:06:55;;;;;;;22.13;20.25;;;;;;;-145.37;100.00;61290.75;6476464;22;20010;-86
2024/05/04 00:09:21;;;;;;;21.48;20.08;;;;;;;-145.37;100.00;61290.75;6432621;22;19993;-86
2024/05/04 00:11:48;;;;;;;26.40;24.35;;;;;;;-145.37;100.00;61290.75;6433437;22;20432;-86
2024/05/04 00:14:15;;;;;;;25.88;24.20;;;;;;;-145.37;100.00;61290.75;6477612;22;19990;-86
2024/05/04 00:16:41;;;;;;;27.45;25.63;;;;;;;-145.37;100.00;61290.75;6477966;22;20424;-86
2024/05/04 00:19:08;;;;;;;29.70;27.48;;;;;;;-145.37;100.00;61290.75;6478052;22;20002;-85
2024/05/04 00:21:35;;;;;;;29.00;27.20;;;;;;;-145.37;100.00;61290.75;6433697;22;19994;-86
2024/05/04 00:24:01;;;;;;;28.88;26.98;;;;;;;-145.37;100.00;61290.75;6392690;22;20083;-87
2024/05/04 00:26:28;;;;;;;29.08;27.17;;;;;;;-145.37;100.00;61290.75;6434185;22;20005;-86
2024/05/04 00:28:57;;;;;;;28.80;26.83;;;;;;;-145.37;100.00;61290.75;6478493;22;20300;-86
2024/05/04 00:31:24;;;;;;;29.55;27.55;;;;;;;-145.37;100.00;61290.75;6434104;22;19990;-86
2024/05/04 00:33:50;;;;;;;31.58;29.15;;;;;;;-145.37;100.00;61290.75;6424224;22;20005;-87
2024/05/04 00:36:17;;;;;;;30.73;28.50;;;;;;;-145.37;100.00;61290.75;6427772;22;20391;-87
2024/05/04 00:38:43;;;;;;;30.55;28.67;;;;;;;-145.37;100.00;61290.75;6428424;22;20006;-87
2024/05/04 00:41:10;;;;;;;28.38;26.42;;;;;;;-145.37;100.00;61290.75;6384526;22;20484;-86
2024/05/04 00:43:37;;;;;;;29.70;27.40;;;;;;;-145.37;100.00;61290.75;6426211;22;19994;-85
2024/05/04 00:46:04;;;;;;;26.50;24.63;;;;;;;-145.37;100.00;61290.75;6426722;22;19994;-87
2024/05/04 00:48:31;;;;;;;25.63;23.80;;;;;;;-145.37;100.00;61290.75;6428470;22;20298;-87
2024/05/04 00:51:00;;;;;;;25.52;23.52;;;;;;;-145.37;100.00;61290.75;6425185;22;20006;-87
2024/05/04 00:53:30;;;;;;;26.15;24.40;;;;;;;-145.37;100.00;61290.75;6428158;22;20005;-86
2024/05/04 00:56:00;;;;;;;26.85;24.95;;;;;;;-145.37;100.00;61290.75;6427489;22;20068;-87
2024/05/04 00:58:27;;;;;;;28.00;26.27;;;;;;;-145.37;100.00;61290.75;6425297;22;20913;-87
2024/05/04 01:00:54;;;;;;;26.42;24.60;;;;;;;-145.37;100.00;61290.75;6424609;22;19998;-86
2024/05/04 01:03:21;;;;;;;25.40;23.60;;;;;;;-145.37;100.00;61290.75;6425807;22;20006;-87
2024/05/04 01:05:48;;;;;;;27.40;25.48;;;;;;;-145.37;100.00;61290.75;6443825;22;20017;-87
2024/05/04 01:08:14;;;;;;;27.75;25.50;;;;;;;-145.37;100.00;61290.75;6442246;22;20038;-87
2024/05/04 01:10:41;;;;;;;26.17;24.58;;;;;;;-145.37;100.00;61290.75;6440617;22;19998;-86
2024/05/04 01:13:09;;;;;;;27.95;25.80;;;;;;;-145.37;100.00;61290.75;6445437;22;20000;-86
2024/05/04 01:15:37;;;;;;;28.08;26.17;;;;;;;-145.37;100.00;61290.75;6446244;22;19991;-86
2024/05/04 01:18:04;;;;;;;31.65;29.40;;;;;;;-145.37;100.00;61290.75;6423454;22;20457;-87
2024/05/04 01:20:31;;;;;;;30.85;28.95;;;;;;;-145.37;100.00;61290.75;6424802;22;19994;-87
2024/05/04 01:23:00;;;;;;;32.95;30.90;;;;;;;-145.37;100.00;61290.75;6427455;22;19996;-86
2024/05/04 01:25:27;;;;;;;32.28;30.13;;;;;;;-145.37;100.00;61290.75;6427151;22;19994;-87
2024/05/04 01:27:54;;;;;;;29.55;27.33;;;;;;;-145.37;100.00;61290.75;6424517;22;20006;-86
2024/05/04 01:30:20;;;;;;;29.65;27.85;;;;;;;-145.37;100.00;61290.75;6424175;22;20464;-86
2024/05/04 01:32:47;;;;;;;31.88;29.75;;;;;;;-145.37;100.00;61290.75;6433636;22;19998;-86
2024/05/04 01:35:14;;;;;;;31.70;29.58;;;;;;;-145.37;100.00;61290.75;6477857;22;20037;-86
2024/05/04 01:37:41;;;;;;;31.25;29.35;;;;;;;-145.37;100.00;61290.75;6478458;22;19998;-86
2024/05/04 01:40:10;;;;;;;30.58;28.52;;;;;;;-145.37;100.00;61290.75;6433858;22;19997;-86
2024/05/04 01:42:39;;;;;;;27.58;25.88;;;;;;;-145.37;100.00;61290.75;6476987;22;19997;-86
2024/05/04 01:45:06;;;;;;;26.42;24.73;;;;;;;-145.37;100.00;61290.75;6433627;22;19998;-86
2024/05/04 01:47:34;;;;;;;25.90;24.20;;;;;;;-145.37;100.00;61290.75;6476930;22;19997;-86
2024/05/04 01:50:01;;;;;;;29.63;27.25;;;;;;;-145.37;100.00;61290.75;6431234;22;19990;-87
2024/05/04 01:52:29;;;;;;;32.70;30.42;;;;;;;-145.37;100.00;61290.75;6477029;22;19993;-87
2024/05/04 01:54:56;;;;;;;33.88;31.45;;;;;;;-145.37;100.00;61290.75;6477590;22;20102;-86
2024/05/04 01:57:23;;;;;;;35.20;32.83;;;;;;;-145.37;100.00;61290.75;6431594;22;20005;-87
2024/05/04 01:59:50;;;;;;;34.33;31.75;;;;;;;-145.37;100.00;61290.75;6477219;22;20060;-87
2024/05/04 02:02:16;;;;;;;33.80;31.60;;;;;;;-145.37;100.00;61290.75;6433509;22;19995;-86
2024/05/04 02:04:43;;;;;;;30.52;28.45;;;;;;;-145.37;100.00;61290.75;6391907;22;20065;-87
2024/05/04 02:07:10;;;;;;;29.15;26.88;;;;;;;-145.37;100.00;61290.75;6432988;22;20008;-86
2024/05/04 02:09:37;;;;;;;29.40;27.50;;;;;;;-145.37;100.00;61290.75;6433633;22;20065;-85
2024/05/04 02:12:04;;;;;;;28.92;27.08;;;;;;;-145.37;100.00;61290.75;6432675;22;19994;-86
2024/05/04 02:14:31;;;;;;;32.65;30.30;;;;;;;-145.37;100.00;61290.75;6434126;22;19990;-87
2024/05/04 02:16:57;;;;;;;34.47;32.00;;;;;;;-145.37;100.00;61290.75;6476445;22;20428;-87
2024/05/04 02:19:25;;;;;;;36.53;34.15;;;;;;;-145.37;100.00;61290.75;6433597;22;19990;-87
2024/05/04 02:21:51;;;;;;;35.13;33.13;;;;;;;-145.37;100.00;61290.75;6477803;22;19993;-86
2024/05/04 02:24:18;;;;;;;33.28;31.17;;;;;;;-145.37;100.00;61290.75;6476573;22;19997;-87
2024/05/04 02:26:45;;;;;;;32.20;30.08;;;;;;;-145.37;100.00;61290.75;6477241;22;20002;-87
2024/05/04 02:29:11;;;;;;;29.63;27.83;;;;;;;-145.37;100.00;61290.75;6477745;22;20108;-87
2024/05/04 02:31:39;;;;;;;31.38;29.25;;;;;;;-145.37;100.00;61290.75;6434728;22;20005;-87
2024/05/04 02:34:06;;;;;;;32.55;30.48;;;;;;;-145.37;100.00;61290.75;6424258;22;20069;-87
2024/05/04 02:36:33;;;;;;;33.85;31.63;;;;;;;-145.37;100.00;61290.75;6426159;22;19991;-87
2024/05/04 02:39:00;;;;;;;36.20;33.83;;;;;;;-145.37;100.00;61290.75;6423973;22;19995;-87
2024/05/04 02:41:28;;;;;;;38.45;35.92;;;;;;;-145.37;100.00;61290.75;6424875;22;20462;-87
2024/05/04 02:43:54;;;;;;;34.30;32.20;;;;;;;-145.37;100.00;61290.75;6423976;22;20002;-87
2024/05/04 02:46:21;;;;;;;34.35;32.10;;;;;;;-145.37;100.00;61290.75;6423909;22;20270;-88
2024/05/04 02:48:48;;;;;;;32.20;30.00;;;;;;;-145.37;100.00;61290.75;6427262;22;19995;-87
2024/05/04 02:51:15;;;;;;;33.38;31.15;;;;;;;-145.37;100.00;61290.75;6425817;22;19995;-87
2024/05/04 02:53:41;;;;;;;32.70;30.70;;;;;;;-145.37;100.00;61290.75;6425146;22;20394;-87
2024/05/04 02:56:08;;;;;;;35.47;33.05;;;;;;;-145.37;100.00;61290.75;6426933;22;20005;-88
2024/05/04 02:58:34;;;;;;;34.67;32.35;;;;;;;-145.37;100.00;61290.75;6429380;22;19999;-87
2024/05/04 03:01:01;;;;;;;35.85;33.13;;;;;;;-145.37;100.00;61290.75;6426383;22;20039;-87
2024/05/04 03:03:29;;;;;;;34.90;32.40;;;;;;;-145.37;100.00;61290.75;6429399;22;20066;-87
2024/05/04 03:05:56;;;;;;;33.17;30.85;;;;;;;-145.37;100.00;61290.75;6432923;22;19994;-88
2024/05/04 03:08:23;;;;;;;33.67;31.45;;;;;;;-145.37;100.00;61290.75;6441614;22;19990;-88
2024/05/04 03:10:49;;;;;;;33.85;31.75;;;;;;;-145.37;100.00;61290.75;6429634;22;20653;-88
2024/05/04 03:13:16;;;;;;;32.90;30.63;;;;;;;-145.37;100.00;61290.75;6430516;22;20069;-88
2024/05/04 03:15:43;;;;;;;38.05;34.50;;;;;;;-145.37;100.00;61290.75;6432030;22;20010;-87
2024/05/04 03:18:09;;;;;;;36.65;34.28;;;;;;;-145.37;100.00;61290.75;6431554;22;19990;-88
2024/05/04 03:20:36;;;;;;;37.30;34.72;;;;;;;-145.37;100.00;61290.75;6428586;22;20002;-88
2024/05/04 03:23:03;;;;;;;37.03;34.20;;;;;;;-145.37;100.00;61290.75;6428891;22;19999;-87
2024/05/04 03:25:30;;;;;;;35.78;33.42;;;;;;;-145.37;100.00;61290.75;6426687;22;19994;-88
2024/05/04 03:27:57;;;;;;;31.20;29.20;;;;;;;-145.37;100.00;61290.75;6425744;22;19998;-87
2024/05/04 03:30:24;;;;;;;33.22;31.08;;;;;;;-145.37;100.00;61290.75;6425361;22;20354;-87
2024/05/04 03:32:50;;;;;;;35.53;33.05;;;;;;;-145.37;100.00;61290.75;6436648;22;19989;-88
2024/05/04 03:35:18;;;;;;;37.03;34.50;;;;;;;-145.37;100.00;61290.75;6434748;22;19994;-88
2024/05/04 03:37:45;;;;;;;36.28;33.88;;;;;;;-145.37;100.00;61290.75;6434953;22;19994;-88
2024/05/04 03:40:12;;;;;;;35.67;33.28;;;;;;;-145.37;100.00;61290.75;6434223;22;19994;-87
2024/05/04 03:42:39;;;;;;;33.20;31.02;;;;;;;-145.37;100.00;61290.75;6478797;22;19998;-88
2024/05/04 03:45:08;;;;;;;35.88;33.55;;;;;;;-145.37;100.00;61290.75;6434180;22;19997;-87
2024/05/04 03:47:35;;;;;;;38.00;35.33;;;;;;;-145.37;100.00;61290.75;6478066;22;20303;-87
2024/05/04 03:50:03;;;;;;;40.28;37.58;;;;;;;-145.37;100.00;61290.75;6434661;22;20010;-88
2024/05/04 03:52:31;;;;;;;42.15;39.08;;;;;;;-145.37;100.00;61290.75;6478056;22;19998;-88
2024/05/04 03:54:57;;;;;;;40.00;37.25;;;;;;;-145.37;100.00;61290.75;6432636;22;20001;-87
2024/05/04 03:57:24;;;;;;;38.38;35.65;;;;;;;-145.37;100.00;61290.75;6432208;22;20418;-87
2024/05/04 03:59:54;;;;;;;35.67;33.33;;;;;;;-145.37;100.00;61290.75;6431304;22;19993;-88
2024/05/04 04:02:20;;;;;;;38.20;35.08;;;;;;;-145.37;100.00;61290.75;6475441;22;20081;-87
2024/05/04 04:04:47;;;;;;;34.40;32.13;;;;;;;-145.37;100.00;61290.75;6473710;22;20068;-87
2024/05/04 04:07:14;;;;;;;32.70;30.73;;;;;;;-145.37;100.00;61290.75;6427987;22;20021;-88
2024/05/04 04:09:40;;;;;;;35.15;32.22;;;;;;;-145.37;100.00;61290.75;6426352;22;19998;-88
2024/05/04 04:12:07;;;;;;;35.85;33.42;;;;;;;-145.37;100.00;61290.75;6422853;22;20091;-87
2024/05/04 04:14:34;;;;;;;38.33;35.38;;;;;;;-145.37;100.00;61290.75;6421146;22;20307;-87
2024/05/04 04:17:01;;;;;;;37.85;35.33;;;;;;;-145.37;100.00;61290.75;6421819;22;20057;-88
2024/05/04 04:19:28;;;;;;;36.92;34.42;;;;;;;-145.37;100.00;61290.75;6421298;22;19990;-87
2024/05/04 04:21:55;;;;;;;36.72;34.00;;;;;;;-145.37;100.00;61290.75;6421201;22;20101;-87
2024/05/04 04:24:21;;;;;;;34.28;31.88;;;;;;;-145.37;100.00;61290.75;6464902;22;20024;-87
2024/05/04 04:26:50;;;;;;;33.60;31.30;;;;;;;-145.37;100.00;61290.75;6420474;22;20001;-88
2024/05/04 04:29:17;;;;;;;34.58;32.17;;;;;;;-145.37;100.00;61290.75;6465670;22;19994;-87
2024/05/04 04:31:44;;;;;;;36.55;33.80;;;;;;;-145.37;100.00;61290.75;6465680;22;20005;-87
2024/05/04 04:34:25;;;;;;;34.63;32.28;;;;;;;-145.37;100.00;61290.75;6428924;22;20002;-87
2024/05/04 04:37:13;;;;;;;34.95;32.38;;;;;;;-145.37;100.00;61290.75;6399164;22;20047;-84
2024/05/04 04:40:26;;;;;;;35.75;33.45;;;;;;;-145.37;100.00;61290.75;6385412;22;20439;-86
2024/05/04 04:43:22;;;;;;;34.65;31.88;;;;;;;-145.37;100.00;61290.75;6437524;22;20008;-87
2024/05/04 04:46:30;;;;;;;35.63;33.22;;;;;;;-145.37;100.00;61290.75;6434603;22;19998;-85
2024/05/04 04:49:29;;;;;;;37.38;34.92;;;;;;;-145.37;100.00;61290.75;6428697;22;20006;-84
2024/05/04 04:52:32;;;;;;;39.17;35.88;;;;;;;-145.37;100.00;61290.75;6406315;22;20018;-87
2024/05/04 04:55:22;;;;;;;40.42;37.70;;;;;;;-145.37;100.00;61290.75;6428580;22;19998;-85
2024/05/04 04:58:30;;;;;;;43.38;40.22;;;;;;;-145.37;100.00;61290.75;6402695;22;20038;-84
2024/05/04 05:02:01;;;;;;;49.03;45.53;;;;;;;-145.37;100.00;61290.75;6434154;22;19998;-86
2024/05/04 05:04:49;;;;;;;46.78;43.70;;;;;;;-145.37;100.00;61290.75;6434424;22;20013;-87
2024/05/04 05:07:39;;;;;;;52.90;49.03;;;;;;;-145.37;100.00;61290.75;6424055;22;20042;-87
2024/05/04 05:10:44;;;;;;;53.15;49.10;;;;;;;-145.37;100.00;61290.75;6406641;22;20417;-87
2024/05/04 05:13:51;;;;;;;57.65;53.35;;;;;;;-145.37;100.00;61290.75;6433726;22;20006;-84
2024/05/04 05:16:45;;;;;;;55.03;51.22;;;;;;;-145.37;100.00;61290.75;6433618;22;19995;-86
2024/05/04 05:19:19;;;;;;;60.15;54.85;;;;;;;-145.37;100.00;61290.75;6434637;22;20313;-87
2024/05/04 05:22:12;;;;;;;60.53;55.75;;;;;;;-145.37;100.00;61290.75;6433201;22;20035;-86
2024/05/04 05:24:56;;;;;;;58.22;54.28;;;;;;;-145.37;100.00;61290.75;6435517;22;19995;-86
2024/05/04 05:27:45;;;;;;;52.53;48.72;;;;;;;-145.37;100.00;61290.75;6435612;22;20271;-86
2024/05/04 05:30:41;;;;;;;47.10;43.47;;;;;;;-145.37;100.00;61290.75;6432741;22;20002;-86
2024/05/04 05:33:14;;;;;;;37.28;34.20;;;;;;;-145.37;100.00;61290.75;6429728;22;20013;-87
2024/05/04 05:35:52;;;;;;;35.42;32.20;;;;;;;-145.37;100.00;61290.75;6426897;22;19999;-87
2024/05/04 05:38:20;;;;;;;30.95;28.35;;;;;;;-145.37;100.00;61290.75;6426044;22;20000;-87
2024/05/04 05:40:47;;;;;;;30.92;28.27;;;;;;;-145.37;100.00;61290.75;6424442;22;20014;-87
2024/05/04 05:43:14;;;;;;;32.25;29.52;;;;;;;-145.37;100.00;61290.75;6425457;22;20005;-88
2024/05/04 05:45:40;;;;;;;30.02;27.42;;;;;;;-145.37;100.00;61290.75;6425435;22;20010;-86
2024/05/04 05:48:07;;;;;;;31.02;28.50;;;;;;;-145.37;100.00;61290.75;6376349;22;19999;-87
2024/05/04 05:50:34;;;;;;;30.80;28.05;;;;;;;-145.37;100.00;61290.75;6371991;22;20082;-87
2024/05/04 05:53:02;;;;;;;31.67;29.05;;;;;;;-145.37;100.00;61290.75;6365068;22;20353;-86
2024/05/04 05:55:28;;;;;;;30.30;27.65;;;;;;;-145.37;100.00;61290.75;6360839;22;20437;-86
2024/05/04 05:57:55;;;;;;;29.08;26.73;;;;;;;-145.37;100.00;61290.75;6362056;22;20003;-87
2024/05/04 06:00:26;;;;;;;29.35;26.85;;;;;;;-145.37;100.00;61290.75;6363915;22;20040;-87
2024/05/04 06:03:00;;;;;;;27.13;24.23;;;;;;;-145.37;100.00;61290.75;6361110;22;19999;-85
2024/05/04 06:05:27;;;;;;;24.25;22.27;;;;;;;-145.37;100.00;61290.75;6363979;22;20437;-87
2024/05/04 06:07:53;;;;;;;25.40;23.00;;;;;;;-145.37;100.00;61290.75;6364744;22;19991;-86
2024/05/04 06:10:20;;;;;;;22.65;20.48;;;;;;;-145.37;100.00;61290.75;6361764;22;20015;-86
2024/05/04 06:12:46;;;;;;;20.13;18.42;;;;;;;-145.37;100.00;61290.75;6360384;22;20067;-85
2024/05/04 06:15:13;;;;;;;19.27;17.42;;;;;;;-145.37;100.00;61290.75;6362717;22;20014;-85
2024/05/04 06:17:40;;;;;;;19.63;17.60;;;;;;;-145.37;100.00;61290.75;6363122;22;19996;-86
2024/05/04 06:20:07;;;;;;;17.75;16.02;;;;;;;-145.37;100.00;61290.75;6364130;22;20080;-85
2024/05/04 06:22:34;;;;;;;20.30;16.58;;;;;;;-145.37;100.00;61290.75;6362538;22;20006;-85
2024/05/04 06:25:01;;;;;;;17.70;15.88;;;;;;;-145.37;100.00;61290.75;6361416;22;19999;-86
2024/05/04 06:27:27;;;;;;;19.30;17.30;;;;;;;-145.37;100.00;61290.75;6361283;22;19996;-88
2024/05/04 06:29:54;;;;;;;19.83;17.83;;;;;;;-145.37;100.00;61290.75;6364238;22;19996;-87
2024/05/04 06:32:23;;;;;;;16.30;14.75;;;;;;;-145.37;100.00;61290.75;6363344;22;20141;-86
2024/05/04 06:34:50;;;;;;;16.85;14.88;;;;;;;-145.37;100.00;61290.75;6361406;22;20355;-85
2024/05/04 06:37:16;;;;;;;17.00;14.20;;;;;;;-145.37;100.00;61290.75;6365968;22;19995;-86
2024/05/04 06:39:43;;;;;;;16.27;12.75;;;;;;;-145.37;100.00;61290.75;6365495;22;20411;-84
2024/05/04 06:42:09;;;;;;;15.90;12.25;;;;;;;-145.37;100.00;61290.75;6366547;22;20413;-86
2024/05/04 06:44:36;;;;;;;14.63;11.75;;;;;;;-145.37;100.00;61290.75;6365895;22;20059;-86
2024/05/04 06:47:03;;;;;;;16.20;12.82;;;;;;;-145.37;100.00;61290.75;6366545;22;20003;-86
2024/05/04 06:49:29;;;;;;;14.77;12.73;;;;;;;-145.37;100.00;61290.75;6366913;22;19992;-85
2024/05/04 06:51:56;;;;;;;18.85;12.68;;;;;;;-145.37;100.00;61290.75;6366912;22;20006;-86
2024/05/04 06:54:22;;;;;;;15.05;13.57;;;;;;;-145.37;100.00;61290.75;6365798;22;20454;-85
2024/05/04 06:56:51;;;;;;;15.38;11.23;;;;;;;-145.37;100.00;61290.75;6365702;22;19996;-86
2024/05/04 06:59:18;;;;;;;18.52;11.63;;;;;;;-145.37;100.00;61290.75;6371436;22;19991;-87
2024/05/04 07:01:45;;;;;;;13.45;11.73;;;;;;;-145.37;100.00;61290.75;6369153;22;19999;-86
2024/05/04 07:04:12;;;;;;;14.00;12.43;;;;;;;-145.37;100.00;61290.75;6365844;22;20035;-85
2024/05/04 07:06:40;;;;;;;13.82;11.68;;;;;;;-145.37;100.00;61290.75;6367636;22;20015;-86
2024/05/04 07:09:07;;;;;;;13.35;10.93;;;;;;;-145.37;100.00;61290.75;6364882;22;20043;-86
2024/05/04 07:11:33;;;;;;;15.77;11.20;;;;;;;-145.37;100.00;61290.75;6367152;22;20052;-86
2024/05/04 07:14:01;;;;;;;15.68;10.73;;;;;;;-145.37;100.00;61290.75;6366638;22;20069;-86
2024/05/04 07:16:27;;;;;;;16.27;10.65;;;;;;;-145.37;100.00;61290.75;6366547;22;19992;-84
2024/05/04 07:18:54;;;;;;;12.30;11.02;;;;;;;-145.37;100.00;61290.75;6366317;22;20608;-86
2024/05/04 07:21:21;;;;;;;13.55;9.85;;;;;;;-145.37;100.00;61290.75;6366676;22;20030;-86
2024/05/04 07:23:47;;;;;;;13.57;10.70;;;;;;;-145.37;100.00;61290.75;6366250;22;20077;-86
2024/05/04 07:26:14;;;;;;;13.70;9.48;;;;;;;-145.37;100.00;61290.75;6367279;22;19995;-85
2024/05/04 07:28:40;;;;;;;10.32;9.05;;;;;;;-145.37;100.00;61290.75;6366701;22;20019;-86
2024/05/04 07:31:07;;;;;;;11.38;8.90;;;;;;;-145.37;100.00;61290.75;6366691;22;19995;-86
2024/05/04 07:33:34;;;;;;;10.20;8.98;;;;;;;-145.37;100.00;61290.75;6387515;22;20014;-85
2024/05/04 07:36:01;;;;;;;11.55;9.57;;;;;;;-145.37;100.00;61290.75;6414786;22;19990;-86
2024/05/04 07:38:29;;;;;;;13.60;9.77;;;;;;;-145.37;100.00;61290.75;6371910;22;20389;-85
2024/05/04 07:40:55;;;;;;;12.10;9.45;;;;;;;-145.37;100.00;61290.75;6415445;22;20002;-84
2024/05/04 07:43:22;;;;;;;11.38;9.13;;;;;;;-145.37;100.00;61290.75;6414073;22;19991;-85
2024/05/04 07:45:49;;;;;;;15.23;9.82;;;;;;;-145.37;100.00;61290.75;6414893;22;20443;-85
2024/05/04 07:48:19;;;;;;;12.20;8.73;;;;;;;-145.37;100.00;61290.75;6371645;22;19994;-86
2024/05/04 07:50:46;;;;;;;11.23;8.43;;;;;;;-145.37;100.00;61290.75;6413877;22;19995;-85
2024/05/04 07:53:13;;;;;;;10.55;8.45;;;;;;;-145.37;100.00;61290.75;6413941;22;19991;-86
2024/05/04 07:55:39;;;;;;;11.23;8.95;;;;;;;-145.37;100.00;61290.75;6415095;22;20417;-86
2024/05/04 07:58:06;;;;;;;9.05;8.10;;;;;;;-145.37;100.00;61290.75;6414585;22;20004;-84
2024/05/04 08:00:33;;;;;;;9.80;7.80;;;;;;;-145.37;100.00;61290.75;6415263;22;20130;-85
2024/05/04 08:02:59;;;;;;;13.63;8.10;;;;;;;-145.37;100.00;61290.75;6415150;22;19999;-86
2024/05/04 08:05:27;;;;;;;9.95;7.40;;;;;;;-145.37;100.00;61290.75;6371954;22;20118;-84
2024/05/04 08:07:54;;;;;;;11.63;7.43;;;;;;;-145.37;100.00;61290.75;6371575;22;20116;-84
2024/05/04 08:10:21;;;;;;;11.48;7.47;;;;;;;-145.37;100.00;61290.75;6414630;22;20054;-87
2024/05/04 08:12:51;;;;;;;11.52;7.50;;;;;;;-145.37;100.00;61290.75;6415605;22;20001;-86
2024/05/04 08:15:18;;;;;;;10.63;7.47;;;;;;;-145.37;100.00;61290.75;6416022;22;20056;-86
2024/05/04 08:17:45;;;;;;;10.75;7.38;;;;;;;-145.37;100.00;61290.75;6373553;22;20390;-86
2024/05/04 08:20:11;;;;;;;13.85;8.20;;;;;;;-145.37;100.00;61290.75;6378504;22;20006;-85
2024/05/04 08:22:38;;;;;;;12.85;8.10;;;;;;;-145.37;100.00;61290.75;6379058;22;20116;-85
2024/05/04 08:25:05;;;;;;;9.60;6.95;;;;;;;-145.37;100.00;61290.75;6422169;22;20035;-87
2024/05/04 08:27:31;;;;;;;10.73;7.72;;;;;;;-145.37;100.00;61290.75;6423767;22;20406;-87
2024/05/04 08:29:58;;;;;;;9.13;7.22;;;;;;;-145.37;100.00;61290.75;6424499;22;19990;-84
2024/05/04 08:32:26;;;;;;;14.60;7.70;;;;;;;-145.37;100.00;61290.75;6381041;22;20084;-83
2024/05/04 08:34:54;;;;;;;10.52;6.65;;;;;;;-145.37;100.00;61290.75;6381639;22;20022;-84
2024/05/04 08:37:21;;;;;;;11.73;7.00;;;;;;;-145.37;100.00;61290.75;6380861;22;19994;-86
2024/05/04 08:39:48;;;;;;;11.65;6.18;;;;;;;-145.37;100.00;61290.75;6423675;22;20110;-84
2024/05/04 08:42:15;;;;;;;10.25;6.65;;;;;;;-145.37;100.00;61290.75;6380540;22;20019;-85
2024/05/04 08:44:44;;;;;;;15.45;6.55;;;;;;;-145.37;100.00;61290.75;6379598;22;20009;-84
2024/05/04 08:47:15;;;;;;;10.07;5.80;;;;;;;-145.37;100.00;61290.75;6380823;22;20018;-86
2024/05/04 08:49:45;;;;;;;9.45;6.25;;;;;;;-145.37;100.00;61290.75;6380543;22;19998;-86
2024/05/04 08:52:13;;;;;;;11.10;5.60;;;;;;;-145.37;100.00;61290.75;6423115;22;19994;-86
2024/05/04 08:54:40;;;;;;;6.95;5.30;;;;;;;-145.37;100.00;61290.75;6378789;22;20269;-86
2024/05/04 08:57:07;;;;;;;6.10;4.88;;;;;;;-145.37;100.00;61290.75;6423155;22;20001;-84
2024/05/04 08:59:38;;;;;;;8.40;4.88;;;;;;;-145.37;100.00;61290.75;6422131;22;19991;-86
2024/05/04 09:02:07;;;;;;;11.15;5.35;;;;;;;-145.37;100.00;61290.75;6380556;22;19991;-85
2024/05/04 09:04:35;;;;;;;8.55;5.10;;;;;;;-145.37;100.00;61290.75;6337225;22;20118;-85
2024/05/04 09:07:07;;;;;;;8.32;5.70;;;;;;;-145.37;100.00;61290.75;6382348;22;20018;-84
2024/05/04 09:09:34;;;;;;;7.53;4.93;;;;;;;-145.37;100.00;61290.75;6381857;22;20390;-83
2024/05/04 09:12:03;;;;;;;7.35;5.90;;;;;;;-145.37;100.00;61290.75;6422311;22;20068;-86
2024/05/04 09:14:31;;;;;;;8.35;4.47;;;;;;;-145.37;100.00;61290.75;6377362;22;20041;-86
2024/05/04 09:16:59;;;;;;;7.28;4.18;;;;;;;-145.37;100.00;61290.75;6421486;22;20022;-86
2024/05/04 09:19:26;;;;;;;5.50;3.90;;;;;;;-145.37;100.00;61290.75;6423029;22;19994;-85
2024/05/04 09:21:57;;;;;;;10.15;5.50;;;;;;;-145.37;100.00;61290.75;6421281;22;20018;-85
2024/05/04 09:24:25;;;;;;;5.18;3.70;;;;;;;-145.37;100.00;61290.75;6377331;22;20022;-86
2024/05/04 09:26:52;;;;;;;11.82;4.80;;;;;;;-145.37;100.00;61290.75;6336877;22;20066;-85
2024/05/04 09:29:19;;;;;;;5.72;4.15;;;;;;;-145.37;100.00;61290.75;6378194;22;20001;-85
2024/05/04 09:31:46;;;;;;;5.03;3.42;;;;;;;-145.37;100.00;61290.75;6422130;22;20429;-84
2024/05/04 09:34:14;;;;;;;6.75;3.67;;;;;;;-145.37;100.00;61290.75;6422891;22;20006;-84
2024/05/04 09:36:45;;;;;;;5.93;3.53;;;;;;;-145.37;100.00;61290.75;6422413;22;19994;-85
2024/05/04 09:39:14;;;;;;;4.85;3.40;;;;;;;-145.37;100.00;61290.75;6299136;22;20082;-85
2024/05/04 09:41:40;;;;;;;4.78;3.53;;;;;;;-145.37;100.00;61290.75;6380100;22;19994;-85
2024/05/04 09:44:14;;;;;;;5.90;3.47;;;;;;;-145.37;100.00;61290.75;6382458;22;20006;-85
2024/05/04 09:46:46;;;;;;;7.30;3.80;;;;;;;-145.37;100.00;61290.75;6423710;22;20146;-85
2024/05/04 09:49:16;;;;;;;5.63;3.70;;;;;;;-145.37;100.00;61290.75;6420510;22;20387;-87
2024/05/04 09:51:44;;;;;;;4.05;3.05;;;;;;;-145.37;100.00;61290.75;6373417;22;20158;-85
2024/05/04 09:54:11;;;;;;;4.95;3.55;;;;;;;-145.37;100.00;61290.75;6372300;22;20271;-85
2024/05/04 09:56:41;;;;;;;6.07;3.83;;;;;;;-145.37;100.00;61290.75;6417339;22;20018;-85
2024/05/04 09:59:10;;;;;;;5.63;3.47;;;;;;;-145.37;100.00;61290.75;6373331;22;20097;-85
2024/05/04 10:01:38;;;;;;;8.10;3.88;;;;;;;-145.37;100.00;61290.75;6373417;22;19994;-86
2024/05/04 10:04:17;;;;;;;10.50;4.22;;;;;;;-145.37;100.00;61290.75;6374819;22;19994;-85
2024/05/04 10:06:46;;;;;;;8.25;3.33;;;;;;;-145.37;100.00;61290.75;6377002;22;20006;-87
2024/05/04 10:09:15;;;;;;;7.20;3.53;;;;;;;-145.37;100.00;61290.75;6420161;22;20001;-85
2024/05/04 10:11:45;;;;;;;3.88;2.63;;;;;;;-145.37;100.00;61290.75;6375936;22;20031;-85
2024/05/04 10:14:17;;;;;;;5.38;3.17;;;;;;;-145.37;100.00;61290.75;6375343;22;20117;-85
2024/05/04 10:16:47;;;;;;;3.47;2.40;;;;;;;-145.37;100.00;61290.75;6423205;22;19998;-85
2024/05/04 10:19:21;;;;;;;5.30;2.38;;;;;;;-145.37;100.00;61290.75;6424448;22;19995;-86
2024/05/04 10:21:49;;;;;;;4.22;2.38;;;;;;;-145.37;100.00;61290.75;6436369;22;20058;-85
2024/05/04 10:24:23;;;;;;;2.83;1.38;;;;;;;-145.37;100.00;61290.75;6431082;22;20047;-85
2024/05/04 10:26:54;;;;;;;2.95;1.30;;;;;;;-145.37;100.00;61290.75;6434392;22;20006;-86
2024/05/04 10:29:21;;;;;;;3.65;1.00;;;;;;;-145.37;100.00;61290.75;6429069;22;20005;-85
2024/05/04 10:31:48;;;;;;;1.73;1.20;;;;;;;-145.37;100.00;61290.75;6422479;22;19998;-85
2024/05/04 10:34:15;;;;;;;2.55;1.73;;;;;;;-145.37;100.00;61290.75;6367478;22;20002;-85
2024/05/04 10:36:42;;;;;;;2.70;1.55;;;;;;;-145.37;100.00;61290.75;6365376;22;20095;-85
2024/05/04 10:39:09;;;;;;;2.60;1.55;;;;;;;-145.37;100.00;61290.75;6364862;22;19995;-84
2024/05/04 10:41:36;;;;;;;4.18;1.73;;;;;;;-145.37;100.00;61290.75;6368358;22;20020;-84
2024/05/04 10:44:03;;;;;;;2.65;1.63;;;;;;;-145.37;100.00;61290.75;6368961;22;20015;-86
2024/05/04 10:46:30;;;;;;;5.18;1.42;;;;;;;-145.37;100.00;61290.75;6368904;22;19995;-86
2024/05/04 10:48:57;;;;;;;4.47;1.70;;;;;;;-145.37;100.00;61290.75;6365757;22;19995;-85
2024/05/04 10:51:25;;;;;;;2.25;1.85;;;;;;;-145.37;100.00;61290.75;6367807;22;20015;-85
2024/05/04 10:53:52;;;;;;;2.15;1.85;;;;;;;-145.37;100.00;61290.75;6366515;22;20410;-84
2024/05/04 10:56:18;;;;;;;3.65;1.70;;;;;;;-145.37;100.00;61290.75;6369636;22;20307;-85
2024/05/04 10:58:45;;;;;;;3.88;1.58;;;;;;;-145.37;100.00;61290.75;6368065;22;20039;-84
2024/05/04 11:01:16;;;;;;;3.60;1.83;;;;;;;-145.37;100.00;61290.75;6364764;22;19992;-86
2024/05/04 11:03:44;;;;;;;6.07;2.28;;;;;;;-145.37;100.00;61290.75;6367335;22;19999;-86
2024/05/04 11:06:10;;;;;;;5.95;2.00;;;;;;;-145.37;100.00;61290.75;6366445;22;19991;-86
2024/05/04 11:08:37;;;;;;;2.53;1.88;;;;;;;-145.37;100.00;61290.75;6364050;22;19999;-85
2024/05/04 11:11:05;;;;;;;2.95;2.20;;;;;;;-145.37;100.00;61290.75;6365367;22;19991;-85